createdAt,value
2022-08-24T05:52:25.654Z,101475.69
2022-08-24T05:54:57.006Z,101478.56
2022-08-24T05:57:23.941Z,101480.22
2022-08-24T05:59:50.649Z,101477.88
2022-08-24T06:02:17.843Z,101480.25
2022-08-24T06:04:45.050Z,101481.44
2022-08-24T06:07:11.814Z,101489.41
2022-08-24T06:09:39.492Z,101481.94
2022-08-24T06:12:06.585Z,101489.47
2022-08-24T06:14:34.403Z,101487.09
2022-08-24T06:17:01.707Z,101493.88
2022-08-24T06:19:28.194Z,101490.75
2022-08-24T06:21:55.231Z,101496.72
2022-08-24T06:24:45.330Z,101497.13
2022-08-24T06:27:21.521Z,101499.94
2022-08-24T06:29:49.071Z,101498.69
2022-08-24T06:32:15.485Z,101502.25
2022-08-24T06:34:41.795Z,101501.84
2022-08-24T06:37:08.114Z,101507.94
2022-08-24T06:39:34.595Z,101509.94
2022-08-24T06:42:00.916Z,101509.22
2022-08-24T06:44:27.424Z,101501.25
2022-08-24T06:46:53.877Z,101508.03
2022-08-24T06:49:20.224Z,101506.09
2022-08-24T06:51:50.622Z,101516.03
2022-08-24T06:54:20.909Z,101519.63
2022-08-24T06:56:47.226Z,101520.38
2022-08-24T06:59:13.531Z,101521.19
2022-08-24T07:01:39.876Z,101518.84
2022-08-24T07:04:06.205Z,101527.59
2022-08-24T07:06:32.535Z,101532.72
2022-08-24T07:08:58.900Z,101531.63
2022-08-24T07:11:25.503Z,101530.81
2022-08-24T07:13:51.961Z,101535.97
2022-08-24T07:16:19.330Z,101534.03
2022-08-24T07:18:49.861Z,101533.97
2022-08-24T07:21:19.292Z,101530.44
2022-08-24T07:23:46.302Z,101534.84
2022-08-24T07:26:21.779Z,101536.41
2022-08-24T07:28:52.391Z,101543.22
2022-08-24T07:31:19.007Z,101540.41
2022-08-24T07:33:45.388Z,101543.19
2022-08-24T07:36:12.851Z,101549.19
2022-08-24T07:38:48.913Z,101552.88
2022-08-24T07:41:38.232Z,101543.72
2022-08-24T07:44:01.546Z,101548.09
2022-08-24T07:46:28.361Z,101552.06
2022-08-24T07:49:05.041Z,101548.53
2022-08-24T07:51:44.980Z,101551.38
2022-08-24T07:54:13.857Z,101553.75
2022-08-24T07:56:40.538Z,101551.75
2022-08-24T07:59:10.930Z,101551.72
2022-08-24T08:01:39.290Z,101553.75
2022-08-24T08:04:06.189Z,101551.38
2022-08-24T08:06:32.473Z,101546.22
2022-08-24T08:08:58.954Z,101551.81
2022-08-24T08:11:25.273Z,101550.63
2022-08-24T08:13:51.569Z,101549.84
2022-08-24T08:16:18.024Z,101552.63
2022-08-24T08:18:45.530Z,101550.63
2022-08-24T08:21:32.153Z,101550.63
2022-08-24T08:24:16.605Z,101552.63
2022-08-24T08:26:49.261Z,101555.06
2022-08-24T08:29:15.844Z,101557.44
2022-08-24T08:31:42.699Z,101564.63
2022-08-24T08:34:09.756Z,101562.59
2022-08-24T08:36:36.579Z,101568.16
2022-08-24T08:39:03.128Z,101570.97
2022-08-24T08:41:49.967Z,101575.72
2022-08-24T08:44:30.111Z,101568.56
2022-08-24T08:46:59.401Z,101568.97
2022-08-24T08:49:41.156Z,101581.75
2022-08-24T08:52:07.528Z,101580.09
2022-08-24T08:54:44.357Z,101581.69
2022-08-24T08:57:19.990Z,101584.53
2022-08-24T08:59:55.938Z,101582.88
2022-08-24T09:02:30.647Z,101571.81
2022-08-24T09:05:10.777Z,101573.41
2022-08-24T09:08:02.258Z,101575.78
2022-08-24T09:11:07.434Z,101574.59
2022-08-24T09:13:49.466Z,101576.19
2022-08-24T09:16:34.449Z,101569.44
2022-08-24T09:19:19.460Z,101567.06
2022-08-24T09:21:49.802Z,101559.91
2022-08-24T09:24:29.403Z,101561.88
2022-08-24T09:27:09.581Z,101569.84
2022-08-24T09:29:54.713Z,101575.44
2022-08-24T09:32:28.522Z,101567.47
2022-08-24T09:35:00.268Z,101566.69
2022-08-24T09:37:36.777Z,101565.50
2022-08-24T09:40:13.395Z,101570.66
2022-08-24T09:42:52.154Z,101575.03
2022-08-24T09:45:44.457Z,101583.41
2022-08-24T09:48:20.495Z,101572.25
2022-08-24T09:50:46.800Z,101573.44
2022-08-24T09:53:31.293Z,101572.63
2022-08-24T09:56:00.716Z,101573.44
2022-08-24T09:58:46.076Z,101582.22
2022-08-24T10:01:30.982Z,101570.31
2022-08-24T10:03:57.359Z,101565.50
2022-08-24T10:06:48.709Z,101565.91
2022-08-24T10:09:33.965Z,101567.09
2022-08-24T10:12:15.589Z,101570.69
2022-08-24T10:14:44.656Z,101562.31
2022-08-24T10:17:29.906Z,101566.31
2022-08-24T10:19:56.267Z,101551.53
2022-08-24T10:22:22.559Z,101551.97
2022-08-24T10:25:03.028Z,101554.34
2022-08-24T10:27:49.769Z,101550.38
2022-08-24T10:30:16.134Z,101557.53
2022-08-24T10:33:17.064Z,101554.72
2022-08-24T10:35:52.519Z,101551.16
2022-08-24T10:38:53.072Z,101538.41
2022-08-24T10:41:25.281Z,101538.41
2022-08-24T10:44:10.327Z,101539.22
2022-08-24T10:46:59.741Z,101544.38
2022-08-24T10:49:45.090Z,101541.16
2022-08-24T10:52:12.172Z,101543.59
2022-08-24T10:54:38.639Z,101545.97
2022-08-24T10:57:15.126Z,101539.63
2022-08-24T10:59:54.978Z,101537.97
2022-08-24T11:02:31.700Z,101543.53
2022-08-24T11:04:59.716Z,101533.16
2022-08-24T11:07:26.366Z,101535.13
2022-08-24T11:09:55.868Z,101535.13
2022-08-24T11:12:32.542Z,101529.94
2022-08-24T11:15:04.227Z,101523.53
2022-08-24T11:17:32.252Z,101526.72
2022-08-24T11:19:59.324Z,101535.06
2022-08-24T11:22:28.814Z,101533.06
2022-08-24T11:24:58.547Z,101536.63
2022-08-24T11:27:27.919Z,101531.03
2022-08-24T11:29:55.479Z,101531.78
2022-08-24T11:32:33.884Z,101539.47
2022-08-24T11:35:01.986Z,101533.75
2022-08-24T11:37:35.267Z,101532.91
2022-08-24T11:40:02.254Z,101543.28
2022-08-24T11:42:36.014Z,101541.81
2022-08-24T11:45:14.774Z,101544.97
2022-08-24T11:47:53.341Z,101546.09
2022-08-24T11:50:19.628Z,101547.69
2022-08-24T11:52:45.921Z,101544.47
2022-08-24T11:55:24.197Z,101554.06
2022-08-24T11:57:59.110Z,101546.47
2022-08-24T12:00:32.688Z,101549.25
2022-08-24T12:03:05.733Z,101542.09
2022-08-24T12:05:47.413Z,101551.63
2022-08-24T12:08:21.669Z,101551.63
2022-08-24T12:11:00.019Z,101546.09
2022-08-24T12:13:58.884Z,101539.69
2022-08-24T12:16:33.569Z,101540.84
2022-08-24T12:19:07.007Z,101548.81
2022-08-24T12:21:36.389Z,101544.44
2022-08-24T12:24:03.767Z,101544.81
2022-08-24T12:26:36.294Z,101549.19
2022-08-24T12:29:25.572Z,101551.28
2022-08-24T12:31:56.186Z,101551.16
2022-08-24T12:34:41.444Z,101548.41
2022-08-24T12:37:34.915Z,101553.97
2022-08-24T12:40:20.046Z,101553.66
2022-08-24T12:42:56.145Z,101550.78
2022-08-24T12:45:23.674Z,101559.47
2022-08-24T12:47:53.029Z,101550.69
2022-08-24T12:50:27.354Z,101554.59
2022-08-24T12:53:09.022Z,101554.19
2022-08-24T12:56:05.542Z,101552.22
2022-08-24T12:58:53.978Z,101541.84
2022-08-24T13:01:21.954Z,101543.41
2022-08-24T13:04:03.450Z,101544.22
2022-08-24T13:06:59.590Z,101537.41
2022-08-24T13:09:28.763Z,101544.59
2022-08-24T13:11:58.790Z,101547.03
2022-08-24T13:14:29.613Z,101547.34
2022-08-24T13:16:56.423Z,101547.34
2022-08-24T13:19:22.741Z,101550.53
2022-08-24T13:21:51.959Z,101548.91
2022-08-24T13:24:27.603Z,101553.31
2022-08-24T13:26:57.847Z,101551.25
2022-08-24T13:29:28.351Z,101548.88
2022-08-24T13:31:59.287Z,101553.22
2022-08-24T13:34:36.046Z,101552.81
2022-08-24T13:37:10.307Z,101552.44
2022-08-24T13:39:45.679Z,101551.19
2022-08-24T13:42:23.206Z,101543.66
2022-08-24T13:44:49.545Z,101546.44
2022-08-24T13:47:22.746Z,101540.78
2022-08-24T13:50:04.408Z,101538.06
2022-08-24T13:52:41.293Z,101533.25
2022-08-24T13:55:23.396Z,101538.81
2022-08-24T13:58:10.746Z,101542.00
2022-08-24T14:00:43.913Z,101541.22
2022-08-24T14:03:19.099Z,101543.59
2022-08-24T14:05:48.611Z,101544.72
2022-08-24T14:08:27.708Z,101549.44
2022-08-24T14:11:17.114Z,101553.44
2022-08-24T14:14:01.949Z,101546.19
2022-08-24T14:17:05.957Z,101558.97
2022-08-24T14:19:44.943Z,101547.84
2022-08-24T14:22:11.250Z,101547.09
2022-08-24T14:24:46.079Z,101551.09
2022-08-24T14:27:45.419Z,101557.13
2022-08-24T14:30:17.822Z,101559.09
2022-08-24T14:32:53.330Z,101554.38
2022-08-24T14:35:25.225Z,101558.34
2022-08-24T14:38:03.850Z,101556.69
2022-08-24T14:40:35.040Z,101562.59
2022-08-24T14:43:03.860Z,101549.41
2022-08-24T14:45:48.907Z,101546.19
2022-08-24T14:48:19.796Z,101552.59
2022-08-24T14:51:04.934Z,101554.59
2022-08-24T14:53:44.070Z,101547.84
2022-08-24T14:56:13.124Z,101546.59
2022-08-24T14:58:48.229Z,101549.78
2022-08-24T15:01:14.612Z,101540.25
2022-08-24T15:03:59.801Z,101540.66
2022-08-24T15:06:44.938Z,101536.66
2022-08-24T15:09:18.981Z,101536.63
2022-08-24T15:11:47.296Z,101531.78
2022-08-24T15:14:33.792Z,101537.31
2022-08-24T15:17:13.784Z,101534.44
2022-08-24T15:19:49.425Z,101526.06
2022-08-24T15:22:34.569Z,101530.06
2022-08-24T15:25:05.942Z,101530.00
2022-08-24T15:27:48.319Z,101524.44
2022-08-24T15:30:21.348Z,101529.19
2022-08-24T15:32:49.461Z,101527.50
2022-08-24T15:35:27.311Z,101529.84
2022-08-24T15:37:53.705Z,101527.47
2022-08-24T15:40:29.434Z,101535.91
2022-08-24T15:43:03.878Z,101537.84
2022-08-24T15:45:31.050Z,101532.72
2022-08-24T15:47:58.076Z,101533.09
2022-08-24T15:50:29.563Z,101536.25
2022-08-24T15:52:56.208Z,101541.88
2022-08-24T15:55:40.323Z,101538.72
2022-08-24T15:58:21.994Z,101544.31
2022-08-24T16:01:07.165Z,101542.53
2022-08-24T16:03:45.308Z,101547.91
2022-08-24T16:06:19.394Z,101548.66
2022-08-24T16:09:04.465Z,101545.06
2022-08-24T16:11:33.489Z,101535.63
2022-08-24T16:14:00.287Z,101540.00
2022-08-24T16:16:34.424Z,101540.44
2022-08-24T16:19:02.282Z,101538.91
2022-08-24T16:21:40.033Z,101530.13
2022-08-24T16:24:23.002Z,101528.94
2022-08-24T16:26:49.326Z,101533.78
2022-08-24T16:29:44.822Z,101528.59
2022-08-24T16:32:22.087Z,101523.41
2022-08-24T16:35:01.095Z,101529.06
2022-08-24T16:37:27.425Z,101532.66
2022-08-24T16:39:53.813Z,101533.88
2022-08-24T16:42:22.490Z,101542.28
2022-08-24T16:44:49.380Z,101536.28
2022-08-24T16:47:15.697Z,101534.66
2022-08-24T16:49:42.169Z,101536.69
2022-08-24T16:52:08.886Z,101538.31
2022-08-24T16:54:35.262Z,101541.06
2022-08-24T16:57:05.262Z,101547.00
2022-08-24T16:59:32.673Z,101541.41
2022-08-24T17:01:59.584Z,101552.97
2022-08-24T17:04:26.108Z,101539.00
2022-08-24T17:06:55.516Z,101547.03
2022-08-24T17:09:22.161Z,101544.69
2022-08-24T17:11:49.547Z,101546.34
2022-08-24T17:14:16.377Z,101548.75
2022-08-24T17:16:43.361Z,101555.16
2022-08-24T17:19:12.188Z,101554.38
2022-08-24T17:21:39.228Z,101553.59
2022-08-24T17:24:06.602Z,101547.22
2022-08-24T17:26:33.194Z,101548.44
2022-08-24T17:29:02.418Z,101556.75
2022-08-24T17:31:30.968Z,101557.19
2022-08-24T17:33:58.098Z,101545.75
2022-08-24T17:36:24.912Z,101550.06
2022-08-24T17:38:55.702Z,101552.91
2022-08-24T17:41:23.012Z,101548.97
2022-08-24T17:43:49.503Z,101555.06
2022-08-24T17:46:17.244Z,101551.88
2022-08-24T17:48:44.692Z,101555.91
2022-08-24T17:51:11.034Z,101550.75
2022-08-24T17:53:37.437Z,101551.50
2022-08-24T17:56:04.201Z,101549.56
2022-08-24T17:58:30.541Z,101553.97
2022-08-24T18:00:56.889Z,101546.44
2022-08-24T18:03:23.238Z,101555.22
2022-08-24T18:05:49.656Z,101554.47
2022-08-24T18:08:16.030Z,101558.00
2022-08-24T18:10:42.353Z,101557.25
2022-08-24T18:13:09.526Z,101562.44
2022-08-24T18:15:36.486Z,101563.25
2022-08-24T18:18:04.273Z,101564.84
2022-08-24T18:20:38.449Z,101563.22
2022-08-24T18:23:05.051Z,101562.84
2022-08-24T18:25:40.174Z,101575.59
2022-08-24T18:28:06.524Z,101581.56
2022-08-24T18:30:33.040Z,101581.91
2022-08-24T18:33:01.745Z,101579.91
2022-08-24T18:35:28.214Z,101586.66
2022-08-24T18:37:57.783Z,101589.44
2022-08-24T18:40:27.133Z,101587.84
2022-08-24T18:42:59.752Z,101597.06
2022-08-24T18:45:29.407Z,101591.47
2022-08-24T18:47:55.800Z,101595.84
2022-08-24T18:50:22.198Z,101596.25
2022-08-24T18:52:48.728Z,101604.28
2022-08-24T18:55:15.192Z,101601.50
2022-08-24T18:57:41.502Z,101611.09
2022-08-24T19:00:09.794Z,101601.59
2022-08-24T19:02:36.504Z,101608.75
2022-08-24T19:05:10.754Z,101609.22
2022-08-24T19:07:39.846Z,101608.41
2022-08-24T19:10:08.520Z,101610.44
2022-08-24T19:12:37.859Z,101604.88
2022-08-24T19:15:05.223Z,101598.84
2022-08-24T19:17:31.615Z,101596.50
2022-08-24T19:19:58.497Z,101598.53
2022-08-24T19:22:26.021Z,101587.38
2022-08-24T19:24:52.923Z,101595.31
2022-08-24T19:27:19.542Z,101587.78
2022-08-24T19:29:55.553Z,101596.50
2022-08-24T19:32:24.218Z,101600.09
2022-08-24T19:34:51.755Z,101592.94
2022-08-24T19:37:18.503Z,101587.78
2022-08-24T19:39:45.879Z,101592.13
2022-08-24T19:42:15.258Z,101586.16
2022-08-24T19:45:00.333Z,101586.97
2022-08-24T19:47:27.142Z,101586.16
2022-08-24T19:49:53.573Z,101588.97
2022-08-24T19:52:20.334Z,101582.19
2022-08-24T19:54:47.151Z,101583.81
2022-08-24T19:57:32.311Z,101588.59
2022-08-24T19:59:59.885Z,101586.56
2022-08-24T20:02:26.608Z,101588.56
2022-08-24T20:04:53.005Z,101587.78
2022-08-24T20:07:19.353Z,101586.56
2022-08-24T20:09:46.100Z,101593.34
2022-08-24T20:12:12.953Z,101597.31
2022-08-24T20:14:39.703Z,101593.34
2022-08-24T20:17:06.477Z,101599.75
2022-08-24T20:19:35.023Z,101606.06
2022-08-24T20:22:01.358Z,101604.50
2022-08-24T20:24:33.648Z,101607.69
2022-08-24T20:27:03.066Z,101595.34
2022-08-24T20:29:29.458Z,101606.50
2022-08-24T20:32:01.195Z,101600.53
2022-08-24T20:34:27.695Z,101606.09
2022-08-24T20:36:54.023Z,101604.91
2022-08-24T20:39:22.810Z,101600.13
2022-08-24T20:41:49.259Z,101599.72
2022-08-24T20:44:15.612Z,101602.09
2022-08-24T20:46:42.663Z,101600.50
2022-08-24T20:49:15.322Z,101603.66
2022-08-24T20:51:43.439Z,101594.13
2022-08-24T20:54:10.502Z,101593.34
2022-08-24T20:56:37.953Z,101592.56
2022-08-24T20:59:05.697Z,101597.31
2022-08-24T21:01:32.559Z,101600.50
2022-08-24T21:04:04.291Z,101592.53
2022-08-24T21:06:31.574Z,101598.50
2022-08-24T21:08:57.855Z,101595.72
2022-08-24T21:11:24.181Z,101593.28
2022-08-24T21:13:50.499Z,101591.34
2022-08-24T21:16:16.882Z,101597.31
2022-08-24T21:18:43.530Z,101592.50
2022-08-24T21:21:10.275Z,101592.53
2022-08-24T21:23:36.629Z,101596.38
2022-08-24T21:26:04.702Z,101590.91
2022-08-24T21:28:31.607Z,101584.94
2022-08-24T21:31:00.484Z,101588.09
2022-08-24T21:33:47.483Z,101592.50
2022-08-24T21:36:14.862Z,101593.22
2022-08-24T21:38:41.212Z,101591.97
2022-08-24T21:41:11.837Z,101585.59
2022-08-24T21:43:38.169Z,101586.81
2022-08-24T21:46:05.731Z,101582.88
2022-08-24T21:48:32.159Z,101587.72
2022-08-24T21:50:58.510Z,101589.75
2022-08-24T21:53:28.704Z,101585.34
2022-08-24T21:55:55.905Z,101588.53
2022-08-24T21:58:23.939Z,101590.13
2022-08-24T22:00:51.077Z,101589.72
2022-08-24T22:03:17.432Z,101581.78
2022-08-24T22:05:43.805Z,101586.94
2022-08-24T22:08:10.155Z,101589.72
2022-08-24T22:10:36.483Z,101594.91
2022-08-24T22:13:04.754Z,101588.94
2022-08-24T22:15:33.098Z,101596.50
2022-08-24T22:17:59.944Z,101592.13
2022-08-24T22:20:26.357Z,101577.00
2022-08-24T22:22:52.691Z,101579.00
2022-08-24T22:25:19.082Z,101586.94
2022-08-24T22:27:45.908Z,101584.16
2022-08-24T22:30:13.513Z,101588.50
2022-08-24T22:32:39.817Z,101584.88
2022-08-24T22:35:06.346Z,101584.91
2022-08-24T22:37:34.885Z,101576.47
2022-08-24T22:40:01.587Z,101578.03
2022-08-24T22:42:28.405Z,101581.06
2022-08-24T22:44:54.870Z,101576.25
2022-08-24T22:47:24.168Z,101579.91
2022-08-24T22:49:50.488Z,101579.16
2022-08-24T22:52:16.839Z,101571.53
2022-08-24T22:54:43.175Z,101578.41
2022-08-24T22:57:09.587Z,101573.66
2022-08-24T22:59:38.153Z,101571.56
2022-08-24T23:02:06.364Z,101573.88
2022-08-24T23:04:35.099Z,101573.53
2022-08-24T23:07:02.265Z,101570.56
2022-08-24T23:09:28.641Z,101572.19
2022-08-24T23:12:09.000Z,101573.72
2022-08-24T23:14:35.411Z,101568.97
2022-08-24T23:17:02.152Z,101573.88
2022-08-24T23:19:47.201Z,101570.69
2022-08-24T23:22:15.356Z,101570.00
2022-08-24T23:24:43.758Z,101555.47
2022-08-24T23:27:10.939Z,101560.94
2022-08-24T23:29:37.643Z,101569.38
2022-08-24T23:32:04.339Z,101562.34
2022-08-24T23:34:30.663Z,101557.25
2022-08-24T23:36:56.968Z,101562.00
2022-08-24T23:39:23.323Z,101559.25
2022-08-24T23:41:49.668Z,101558.91
2022-08-24T23:44:20.762Z,101559.31
2022-08-24T23:46:47.556Z,101556.16
2022-08-24T23:49:15.126Z,101558.84
2022-08-24T23:51:41.925Z,101551.75
2022-08-24T23:54:09.953Z,101554.13
2022-08-24T23:56:37.752Z,101558.09
2022-08-24T23:59:06.461Z,101547.38
